Time;durP1;ratioP1;P1;durP2;ratioP2;P2;SDS_P1;SDS_P2;PMS_P1;PMS_P2;Temp;Humidity;BMP_temperature;BMP_pressure;BME280_temperature;BME280_humidity;BME280_pressure;Samples;Min_cycle;Max_cycle;Signal;HPM_P1;HPM_P2
2022/07/06 00:01:10;;;;;;;11.65;10.55;;;;;;;26.11;49.08;99372.66;5072041;28;20510;-66
2022/07/06 00:03:35;;;;;;;11.63;10.25;;;;;;;26.11;48.91;99378.06;5072806;28;20484;-66
2022/07/06 00:06:01;;;;;;;14.63;11.90;;;;;;;26.11;49.02;99366.41;5071891;28;20119;-66
2022/07/06 00:08:26;;;;;;;12.85;10.20;;;;;;;26.11;49.15;99367.22;5071614;28;20093;-66
2022/07/06 00:10:52;;;;;;;13.05;10.07;;;;;;;26.13;49.14;99370.53;5072242;28;20036;-66
2022/07/06 00:13:17;;;;;;;11.57;10.43;;;;;;;26.12;48.79;99373.50;5071865;28;20410;-66
2022/07/06 00:15:43;;;;;;;10.70;9.60;;;;;;;26.12;48.99;99371.59;5071898;28;20089;-66
2022/07/06 00:18:08;;;;;;;17.92;11.32;;;;;;;26.12;49.07;99371.59;5072006;28;20060;-66
2022/07/06 00:20:34;;;;;;;12.38;10.40;;;;;;;26.11;49.15;99364.50;5072575;28;20123;-66
2022/07/06 00:22:59;;;;;;;11.02;9.57;;;;;;;26.10;48.90;99360.13;5071638;28;20063;-66
2022/07/06 00:25:25;;;;;;;11.30;10.27;;;;;;;26.10;48.80;99351.16;5071869;28;20111;-66
2022/07/06 00:27:50;;;;;;;14.77;10.43;;;;;;;26.06;48.95;99356.22;5071834;28;20491;-66
2022/07/06 00:30:18;;;;;;;12.60;10.20;;;;;;;26.02;49.00;99352.31;5071786;28;20036;-66
2022/07/06 00:32:43;;;;;;;10.95;9.77;;;;;;;25.97;49.12;99355.69;5074712;28;20032;-65
2022/07/06 00:35:09;;;;;;;11.50;10.25;;;;;;;25.98;49.53;99348.38;5075624;28;20032;-65
2022/07/06 00:37:34;;;;;;;11.65;10.02;;;;;;;25.96;49.11;99342.34;5075287;28;20037;-66
2022/07/06 00:40:00;;;;;;;11.52;9.77;;;;;;;25.89;49.32;99337.84;5075697;28;20040;-66
2022/07/06 00:42:25;;;;;;;10.85;9.73;;;;;;;25.87;49.31;99341.88;5074850;28;20150;-67
2022/07/06 00:44:51;;;;;;;11.57;9.80;;;;;;;25.73;49.58;99341.97;5073861;28;20063;-65
2022/07/06 00:47:16;;;;;;;11.55;9.75;;;;;;;25.62;49.89;99344.63;5074798;28;20040;-66
2022/07/06 00:52:26;;;;;;;11.88;10.23;;;;;;;25.56;50.21;99349.88;5075003;28;20035;-65
2022/07/06 00:54:51;;;;;;;12.45;9.95;;;;;;;25.63;49.94;99355.22;5075163;28;20032;-65
2022/07/06 00:57:18;;;;;;;13.68;10.98;;;;;;;25.58;50.00;99353.19;5075109;28;20434;-65
2022/07/06 00:59:43;;;;;;;11.25;10.05;;;;;;;25.55;50.17;99348.22;5074819;28;20028;-66
2022/07/06 01:02:09;;;;;;;11.02;9.93;;;;;;;25.47;50.63;99351.25;5074892;28;20094;-66
2022/07/06 01:04:34;;;;;;;10.70;9.70;;;;;;;25.41;50.76;99352.97;5074807;28;20063;-66
2022/07/06 01:07:01;;;;;;;14.30;10.60;;;;;;;25.17;51.08;99349.19;5074890;28;20377;-66
2022/07/06 01:09:27;;;;;;;11.90;10.07;;;;;;;25.07;51.73;99357.00;5074499;28;20031;-65
2022/07/06 01:11:53;;;;;;;12.60;10.25;;;;;;;25.09;51.69;99352.16;5074674;28;20029;-66
2022/07/06 01:14:20;;;;;;;12.27;11.07;;;;;;;25.22;50.97;99357.47;5074724;28;20476;-66
2022/07/06 01:16:45;;;;;;;11.27;9.80;;;;;;;25.36;50.48;99355.47;5074270;28;20017;-66
2022/07/06 01:19:11;;;;;;;11.13;9.48;;;;;;;25.47;50.53;99353.94;5074382;28;20059;-66
2022/07/06 01:21:39;;;;;;;11.27;9.63;;;;;;;25.51;50.17;99357.88;5074658;28;20502;-66
2022/07/06 01:24:05;;;;;;;11.60;9.35;;;;;;;25.56;50.55;99355.31;5074698;28;20542;-66
2022/07/06 01:26:31;;;;;;;12.30;9.48;;;;;;;25.50;50.27;99355.38;5074488;28;20036;-66
2022/07/06 01:28:57;;;;;;;11.00;9.85;;;;;;;25.44;50.68;99357.09;5074513;28;20044;-66
2022/07/06 01:31:25;;;;;;;12.60;10.35;;;;;;;25.39;50.72;99348.78;5074190;28;20109;-66
2022/07/06 01:33:55;;;;;;;12.38;10.48;;;;;;;25.42;50.76;99353.78;5074163;28;20036;-66
2022/07/06 01:36:21;;;;;;;13.63;10.40;;;;;;;25.38;50.89;99357.94;5072573;28;20025;-66
2022/07/06 01:38:54;;;;;;;11.27;9.40;;;;;;;25.39;50.57;99359.59;5074405;28;20078;-66
2022/07/06 01:41:21;;;;;;;11.43;10.23;;;;;;;25.47;50.64;99359.38;5074266;28;20046;-66
2022/07/06 01:43:46;;;;;;;16.42;10.50;;;;;;;25.32;50.92;99359.66;5073468;28;20495;-66
2022/07/06 01:46:12;;;;;;;10.57;9.48;;;;;;;25.23;51.28;99366.44;5073846;28;20040;-66
2022/07/06 01:48:38;;;;;;;11.50;10.32;;;;;;;25.26;50.93;99366.81;5073892;28;20028;-66
2022/07/06 01:51:04;;;;;;;11.32;9.98;;;;;;;25.33;51.05;99369.44;5074118;28;20032;-66
2022/07/06 01:53:29;;;;;;;12.20;10.93;;;;;;;25.22;51.37;99371.00;5073687;28;20036;-66
2022/07/06 01:55:55;;;;;;;12.65;10.60;;;;;;;25.22;51.24;99372.88;5074318;28;20040;-66
2022/07/06 01:58:21;;;;;;;12.20;10.48;;;;;;;25.20;51.09;99367.72;5073387;28;20082;-66
2022/07/06 02:00:46;;;;;;;12.90;10.00;;;;;;;25.29;50.97;99376.38;5073922;28;20032;-66
2022/07/06 02:03:11;;;;;;;11.35;10.25;;;;;;;25.41;50.81;99365.63;5073527;28;20392;-66
2022/07/06 02:05:37;;;;;;;15.32;11.27;;;;;;;25.39;50.71;99365.03;5073846;28;20049;-66
2022/07/06 02:08:02;;;;;;;12.23;11.02;;;;;;;25.28;50.84;99353.88;5073652;28;20032;-66
2022/07/06 02:10:28;;;;;;;10.20;9.20;;;;;;;25.45;50.78;99366.88;5073734;28;20480;-67
2022/07/06 02:12:53;;;;;;;11.73;10.48;;;;;;;25.52;50.30;99372.25;5073338;28;20476;-66
2022/07/06 02:15:19;;;;;;;11.73;10.48;;;;;;;25.58;50.11;99364.03;5073703;28;20047;-66
2022/07/06 02:17:44;;;;;;;11.32;10.13;;;;;;;25.65;50.11;99371.28;5072926;28;20139;-66
2022/07/06 02:20:10;;;;;;;12.93;10.48;;;;;;;25.63;50.18;99376.09;5073204;28;20044;-66
2022/07/06 02:22:35;;;;;;;14.45;10.38;;;;;;;25.65;49.88;99374.00;5073261;28;20094;-66
2022/07/06 02:25:01;;;;;;;14.95;10.88;;;;;;;25.67;49.54;99367.28;5073305;28;20036;-66
2022/07/06 02:27:26;;;;;;;13.73;10.65;;;;;;;25.74;49.56;99372.63;5073347;28;20559;-66
2022/07/06 02:29:52;;;;;;;12.98;11.68;;;;;;;25.78;49.42;99373.84;5073414;28;20055;-66
2022/07/06 02:32:17;;;;;;;13.55;10.70;;;;;;;25.72;49.63;99366.59;5073187;28;20039;-66
2022/07/06 02:34:43;;;;;;;11.70;10.50;;;;;;;25.68;49.70;99370.81;5073186;28;20036;-67
2022/07/06 02:37:09;;;;;;;13.20;11.63;;;;;;;25.63;50.06;99379.63;5072932;28;20454;-66
2022/07/06 02:39:35;;;;;;;12.77;11.35;;;;;;;25.55;50.23;99385.34;5072954;28;20029;-66
2022/07/06 02:42:00;;;;;;;11.32;10.00;;;;;;;25.57;49.82;99392.19;5072995;28;20032;-66
2022/07/06 02:44:26;;;;;;;12.23;10.05;;;;;;;25.59;49.91;99381.09;5073172;28;20044;-66
2022/07/06 02:46:51;;;;;;;12.00;10.43;;;;;;;25.65;49.40;99391.06;5072770;28;20040;-66
2022/07/06 02:49:17;;;;;;;11.30;10.15;;;;;;;25.71;49.43;99387.47;5072907;28;20079;-66
2022/07/06 02:51:42;;;;;;;12.68;10.77;;;;;;;25.71;49.62;99381.22;5072969;28;20028;-66
2022/07/06 02:54:08;;;;;;;11.75;10.15;;;;;;;25.69;49.60;99380.59;5072369;28;20392;-66
2022/07/06 02:56:33;;;;;;;11.73;9.70;;;;;;;25.68;49.59;99387.91;5072733;28;20028;-66
2022/07/06 02:58:58;;;;;;;12.20;10.93;;;;;;;25.64;50.05;99383.19;5072976;28;20452;-66
2022/07/06 03:01:24;;;;;;;10.68;9.60;;;;;;;25.55;50.10;99372.59;5072536;28;20032;-66
2022/07/06 03:03:49;;;;;;;12.52;11.23;;;;;;;25.48;50.16;99373.72;5072745;28;20032;-66
2022/07/06 03:06:15;;;;;;;13.45;11.48;;;;;;;25.44;50.60;99370.63;5072529;28;20086;-66
2022/07/06 03:08:40;;;;;;;12.10;10.55;;;;;;;25.48;50.45;99371.88;5072872;28;20127;-66
2022/07/06 03:11:06;;;;;;;13.43;10.38;;;;;;;25.57;49.87;99370.50;5072634;28;20530;-66
2022/07/06 03:13:31;;;;;;;11.60;10.43;;;;;;;25.64;49.86;99361.50;5072734;28;20429;-66
2022/07/06 03:15:57;;;;;;;12.75;9.73;;;;;;;25.68;49.60;99357.25;5072645;28;20059;-66
2022/07/06 03:18:22;;;;;;;11.02;8.93;;;;;;;25.74;49.31;99359.09;5072122;28;20082;-66
2022/07/06 03:20:48;;;;;;;11.52;10.32;;;;;;;25.85;49.15;99366.47;5072339;28;20033;-66
2022/07/06 03:23:13;;;;;;;11.38;9.63;;;;;;;25.98;48.95;99364.66;5072120;28;20041;-66
2022/07/06 03:25:39;;;;;;;12.98;10.05;;;;;;;26.11;49.16;99361.00;5072215;28;20041;-66
2022/07/06 03:28:04;;;;;;;11.15;9.93;;;;;;;26.13;49.14;99356.19;5072321;28;20038;-66
2022/07/06 03:30:30;;;;;;;11.35;10.10;;;;;;;26.23;49.02;99356.44;5072579;28;20068;-66
2022/07/06 03:32:55;;;;;;;11.93;10.43;;;;;;;26.38;48.89;99361.50;5072342;28;20119;-66
2022/07/06 03:35:21;;;;;;;12.07;10.75;;;;;;;26.49;48.56;99357.13;5072292;28;20047;-67
2022/07/06 03:37:46;;;;;;;10.95;9.82;;;;;;;26.59;48.31;99359.31;5072061;28;20086;-66
2022/07/06 03:40:12;;;;;;;11.52;10.35;;;;;;;26.59;48.46;99360.16;5072579;28;20503;-66
2022/07/06 03:42:37;;;;;;;12.07;10.88;;;;;;;26.60;48.43;99358.25;5072343;28;20039;-66
2022/07/06 03:45:04;;;;;;;11.63;10.35;;;;;;;26.63;48.38;99357.78;5072320;28;20037;-66
2022/07/06 03:47:30;;;;;;;13.40;10.15;;;;;;;26.66;48.53;99363.56;5071981;28;20047;-65
2022/07/06 03:49:56;;;;;;;12.55;10.93;;;;;;;26.70;48.39;99366.66;5072440;28;20396;-66
2022/07/06 03:52:21;;;;;;;13.10;11.50;;;;;;;26.73;48.38;99366.19;5072606;28;20399;-66
2022/07/06 03:54:47;;;;;;;14.95;10.77;;;;;;;26.75;48.46;99366.78;5072127;28;20033;-66
2022/07/06 03:57:13;;;;;;;11.07;9.60;;;;;;;26.75;48.44;99366.78;5072359;28;20032;-66
2022/07/06 03:59:39;;;;;;;10.63;9.48;;;;;;;26.77;48.10;99361.97;5072337;28;20110;-66
2022/07/06 04:02:05;;;;;;;10.02;9.02;;;;;;;26.79;47.85;99368.03;5071992;28;20032;-66
2022/07/06 04:04:31;;;;;;;11.95;9.98;;;;;;;26.80;48.01;99363.41;5071948;28;20058;-66
2022/07/06 04:06:56;;;;;;;13.80;10.68;;;;;;;26.78;47.84;99371.75;5075653;28;20032;-66
2022/07/06 04:09:22;;;;;;;19.75;11.30;;;;;;;26.79;47.79;99375.31;5076024;28;20028;-66
2022/07/06 04:11:47;;;;;;;13.07;11.48;;;;;;;26.78;47.88;99377.19;5075851;28;20033;-66
2022/07/06 04:14:12;;;;;;;12.73;11.20;;;;;;;26.75;47.97;99374.94;5075842;28;20040;-66
2022/07/06 04:16:38;;;;;;;13.95;10.27;;;;;;;26.74;48.18;99369.75;5075802;28;20032;-67
2022/07/06 04:19:03;;;;;;;13.68;11.27;;;;;;;26.69;48.50;99373.13;5075325;28;20060;-66
2022/07/06 04:21:29;;;;;;;13.38;11.30;;;;;;;26.56;48.65;99368.75;5075694;28;20058;-66
2022/07/06 04:23:54;;;;;;;15.32;12.30;;;;;;;26.43;49.36;99363.50;5075725;28;20032;-66
2022/07/06 04:26:20;;;;;;;13.65;12.25;;;;;;;26.26;49.69;99361.44;5075516;28;20029;-66
2022/07/06 04:28:45;;;;;;;17.50;12.18;;;;;;;26.18;50.11;99373.41;5075249;28;20032;-66
2022/07/06 04:31:14;;;;;;;20.23;12.20;;;;;;;26.12;50.50;99371.59;5075578;28;20024;-66
2022/07/06 04:33:40;;;;;;;15.93;13.02;;;;;;;26.12;50.44;99368.06;5075116;28;20028;-66
2022/07/06 04:36:06;;;;;;;13.80;12.15;;;;;;;26.15;50.60;99373.03;5075699;28;20036;-66
2022/07/06 04:38:31;;;;;;;13.95;11.95;;;;;;;26.21;50.30;99372.13;5075577;28;20028;-66
2022/07/06 04:40:57;;;;;;;19.38;14.85;;;;;;;26.29;50.34;99366.41;5075441;28;20502;-66
2022/07/06 04:43:22;;;;;;;25.20;17.98;;;;;;;26.42;50.16;99367.28;5075114;28;20407;-66
2022/07/06 04:45:48;;;;;;;14.88;10.57;;;;;;;26.60;49.77;99363.69;5075116;28;20387;-66
2022/07/06 04:48:13;;;;;;;12.40;11.20;;;;;;;26.80;49.31;99369.69;5074765;28;20043;-66
2022/07/06 04:50:39;;;;;;;14.13;11.13;;;;;;;26.97;48.55;99352.72;5075506;28;20047;-66
2022/07/06 04:53:04;;;;;;;16.73;11.18;;;;;;;27.08;48.42;99360.06;5074950;28;20032;-66
2022/07/06 04:55:29;;;;;;;12.10;10.20;;;;;;;27.18;48.19;99361.34;5075136;28;20043;-66
2022/07/06 04:57:55;;;;;;;13.60;9.90;;;;;;;27.29;48.16;99357.00;5074829;28;20042;-66
2022/07/06 05:00:21;;;;;;;20.83;9.75;;;;;;;27.45;47.25;99369.91;5075041;28;20032;-66
2022/07/06 05:02:46;;;;;;;10.20;9.20;;;;;;;27.64;47.02;99361.63;5074999;28;20041;-68
2022/07/06 05:05:12;;;;;;;11.10;7.93;;;;;;;27.84;46.32;99363.97;5074915;28;20032;-66
2022/07/06 05:07:40;;;;;;;9.93;8.65;;;;;;;28.01;45.37;99356.69;5074795;28;20059;-66
2022/07/06 05:10:08;;;;;;;9.52;8.57;;;;;;;28.20;45.07;99358.47;5074906;28;20036;-66
2022/07/06 05:12:34;;;;;;;12.55;8.45;;;;;;;28.32;44.71;99362.78;5074541;28;20053;-66
2022/07/06 05:15:00;;;;;;;10.98;9.15;;;;;;;28.42;45.14;99355.91;5074756;28;20127;-66
2022/07/06 05:17:25;;;;;;;9.77;8.50;;;;;;;28.47;44.78;99351.38;5073485;28;20024;-66
2022/07/06 05:19:51;;;;;;;9.70;7.30;;;;;;;28.59;44.38;99345.03;5074745;28;20063;-66
2022/07/06 05:22:16;;;;;;;13.02;8.27;;;;;;;28.69;44.55;99347.13;5074510;28;20032;-66
2022/07/06 05:24:42;;;;;;;10.27;8.23;;;;;;;28.80;44.37;99348.16;5074378;28;20115;-66
2022/07/06 05:27:07;;;;;;;12.32;8.02;;;;;;;28.92;43.50;99349.72;5074310;28;20086;-66
2022/07/06 05:29:32;;;;;;;12.32;8.82;;;;;;;29.05;43.64;99342.28;5074165;28;20117;-66
2022/07/06 05:31:58;;;;;;;8.02;6.93;;;;;;;29.11;43.55;99337.78;5074236;28;20146;-66
2022/07/06 05:34:23;;;;;;;8.85;7.95;;;;;;;29.19;43.38;99346.31;5074614;28;20028;-66
2022/07/06 05:36:49;;;;;;;8.80;7.20;;;;;;;29.26;43.02;99334.44;5074115;28;20028;-66
2022/07/06 05:39:19;;;;;;;8.60;7.70;;;;;;;29.28;42.52;99333.13;5074055;28;20063;-66
2022/07/06 05:41:45;;;;;;;15.00;7.88;;;;;;;29.33;42.45;99340.56;5073860;28;20153;-66
2022/07/06 05:44:10;;;;;;;10.60;8.13;;;;;;;29.34;42.31;99343.06;5073776;28;20448;-67
2022/07/06 05:46:36;;;;;;;11.10;8.00;;;;;;;29.39;42.39;99342.31;5073820;28;20036;-66
2022/07/06 05:51:45;;;;;;;11.48;7.72;;;;;;;29.41;42.11;99340.16;5074058;28;20395;-67
2022/07/06 05:54:11;;;;;;;12.52;7.43;;;;;;;29.41;42.18;99348.31;5073334;28;20029;-66
2022/07/06 05:56:36;;;;;;;11.43;8.25;;;;;;;29.38;42.33;99351.56;5073661;28;20052;-66
2022/07/06 05:59:02;;;;;;;9.20;8.10;;;;;;;29.33;42.12;99340.56;5073878;28;20094;-66
2022/07/06 06:01:27;;;;;;;9.40;7.70;;;;;;;29.31;42.55;99343.53;5073846;28;20031;-67
2022/07/06 06:03:53;;;;;;;7.90;7.00;;;;;;;29.29;42.49;99344.84;5073516;28;20484;-65
2022/07/06 06:06:18;;;;;;;11.50;7.50;;;;;;;29.25;42.40;99341.81;5073207;28;20028;-66
2022/07/06 06:08:44;;;;;;;10.93;7.47;;;;;;;29.22;42.11;99336.84;5073990;28;20029;-67
2022/07/06 06:11:09;;;;;;;9.30;7.75;;;;;;;29.22;42.30;99337.66;5073539;28;20063;-66
2022/07/06 06:13:35;;;;;;;9.48;8.02;;;;;;;29.19;42.43;99335.44;5073490;28;20077;-65
2022/07/06 06:16:00;;;;;;;8.25;7.30;;;;;;;29.13;42.24;99333.72;5073906;28;20032;-67
2022/07/06 06:18:26;;;;;;;10.82;7.18;;;;;;;29.10;42.67;99331.47;5072896;28;20056;-66
2022/07/06 06:20:51;;;;;;;8.15;7.28;;;;;;;29.07;42.69;99335.53;5073363;28;20536;-67
2022/07/06 06:23:17;;;;;;;10.73;7.55;;;;;;;28.99;42.77;99337.84;5072894;28;20516;-67
2022/07/06 06:25:42;;;;;;;9.88;7.35;;;;;;;28.86;42.63;99323.50;5073344;28;20039;-66
2022/07/06 06:28:09;;;;;;;11.45;7.95;;;;;;;28.83;43.02;99334.88;5072626;28;20119;-66
2022/07/06 06:30:36;;;;;;;7.70;6.90;;;;;;;28.70;43.29;99333.25;5072869;28;20036;-66
2022/07/06 06:33:20;;;;;;;7.93;7.05;;;;;;;28.55;43.59;99319.38;5072948;28;20055;-67
2022/07/06 06:35:51;;;;;;;8.95;6.82;;;;;;;28.43;43.89;99331.16;5073268;28;20032;-66
2022/07/06 06:38:18;;;;;;;7.75;6.68;;;;;;;28.37;43.45;99323.13;5072785;28;20029;-67
2022/07/06 06:40:44;;;;;;;9.57;6.65;;;;;;;28.32;43.64;99330.13;5072919;28;20082;-66
2022/07/06 06:43:09;;;;;;;7.45;6.75;;;;;;;28.27;43.72;99321.03;5073081;28;20059;-66
2022/07/06 06:45:35;;;;;;;7.50;6.70;;;;;;;28.24;43.97;99327.81;5072654;28;20506;-67
2022/07/06 06:48:00;;;;;;;10.60;6.85;;;;;;;28.20;43.63;99321.19;5072541;28;20028;-66
2022/07/06 06:50:26;;;;;;;6.88;6.10;;;;;;;28.17;43.81;99325.25;5073085;28;20028;-66
2022/07/06 06:52:52;;;;;;;8.38;6.38;;;;;;;28.15;44.00;99327.38;5072580;28;20028;-66
2022/07/06 06:55:18;;;;;;;11.15;7.88;;;;;;;28.11;44.06;99320.75;5072861;28;20028;-67
2022/07/06 06:57:44;;;;;;;9.10;7.30;;;;;;;28.13;44.27;99326.78;5072624;28;20032;-66
2022/07/06 07:00:11;;;;;;;9.30;7.00;;;;;;;28.11;44.34;99326.19;5072799;28;20059;-66
2022/07/06 07:02:36;;;;;;;10.63;7.80;;;;;;;28.10;44.45;99327.25;5072411;28;20032;-66
2022/07/06 07:05:03;;;;;;;10.98;7.30;;;;;;;28.12;44.37;99321.59;5072666;28;20527;-66
2022/07/06 07:07:28;;;;;;;12.30;7.65;;;;;;;28.12;43.92;99330.56;5072461;28;20032;-66
2022/07/06 07:09:54;;;;;;;11.38;7.80;;;;;;;28.11;44.14;99326.19;5072671;28;20460;-67
2022/07/06 07:12:19;;;;;;;9.45;7.68;;;;;;;28.13;44.01;99328.69;5072321;28;20509;-66
2022/07/06 07:14:45;;;;;;;10.90;7.70;;;;;;;28.13;44.41;99325.97;5072402;28;20111;-66
2022/07/06 07:17:11;;;;;;;14.65;8.48;;;;;;;28.12;44.33;99330.56;5072339;28;20483;-66
2022/07/06 07:19:37;;;;;;;12.75;8.07;;;;;;;28.13;44.19;99328.69;5072121;28;20063;-66
2022/07/06 07:22:03;;;;;;;12.52;8.57;;;;;;;28.12;44.58;99327.84;5072051;28;20115;-66
2022/07/06 07:24:29;;;;;;;10.88;7.68;;;;;;;28.14;44.63;99333.06;5072079;28;20127;-66
2022/07/06 07:26:54;;;;;;;11.05;8.20;;;;;;;28.13;44.71;99334.13;5072360;28;20036;-66
2022/07/06 07:29:20;;;;;;;9.73;7.50;;;;;;;28.13;44.26;99328.69;5072638;28;20036;-66
2022/07/06 07:31:45;;;;;;;8.70;7.80;;;;;;;28.12;44.15;99330.56;5072190;28;20028;-66
2022/07/06 07:34:11;;;;;;;10.38;8.38;;;;;;;28.14;44.42;99327.63;5072488;28;20450;-66
2022/07/06 07:36:36;;;;;;;14.80;10.98;;;;;;;28.14;44.34;99327.63;5072332;28;20032;-66
2022/07/06 07:39:03;;;;;;;16.02;12.05;;;;;;;28.16;44.49;99325.50;5072870;28;20495;-67
2022/07/06 07:41:28;;;;;;;16.15;11.88;;;;;;;28.16;44.24;99320.88;5075418;28;20040;-66
2022/07/06 07:43:54;;;;;;;13.82;10.52;;;;;;;28.19;44.54;99329.59;5076761;28;20033;-66
2022/07/06 07:46:19;;;;;;;12.75;9.10;;;;;;;28.18;44.69;99328.78;5076182;28;20045;-66
2022/07/06 07:48:44;;;;;;;14.75;9.48;;;;;;;28.19;44.73;99327.69;5076070;28;20036;-66
2022/07/06 07:51:10;;;;;;;10.07;9.07;;;;;;;28.20;44.25;99326.63;5075837;28;20032;-66
2022/07/06 07:53:35;;;;;;;9.32;8.20;;;;;;;28.20;44.47;99329.34;5076302;28;20043;-67
2022/07/06 07:56:01;;;;;;;11.57;9.18;;;;;;;28.16;44.69;99330.94;5076279;28;20039;-66
2022/07/06 07:58:27;;;;;;;11.45;8.73;;;;;;;28.14;44.79;99330.34;5075925;28;20028;-65
2022/07/06 08:00:52;;;;;;;14.90;8.63;;;;;;;28.13;44.85;99324.06;5075800;28;20119;-66
2022/07/06 08:03:18;;;;;;;15.73;8.98;;;;;;;28.15;44.51;99324.66;5076114;28;20060;-67
2022/07/06 08:05:43;;;;;;;9.05;8.18;;;;;;;28.14;44.83;99323.00;5074467;28;20552;-66
2022/07/06 08:08:09;;;;;;;8.88;7.97;;;;;;;28.16;45.05;99323.59;5075961;28;20028;-66
2022/07/06 08:10:34;;;;;;;9.82;7.75;;;;;;;28.19;45.10;99326.88;5075756;28;20039;-66
2022/07/06 08:13:00;;;;;;;10.85;8.35;;;;;;;28.20;44.90;99325.81;5075737;28;20487;-66
2022/07/06 08:15:25;;;;;;;10.60;7.95;;;;;;;28.19;44.80;99329.59;5075845;28;20483;-66
2022/07/06 08:17:51;;;;;;;11.05;8.27;;;;;;;28.18;44.99;99323.31;5075309;28;20567;-66
2022/07/06 08:20:16;;;;;;;9.50;8.60;;;;;;;28.18;44.95;99317.88;5075749;28;20119;-66
2022/07/06 08:22:43;;;;;;;9.60;7.90;;;;;;;28.20;45.27;99326.63;5075296;28;20044;-67
2022/07/06 08:25:09;;;;;;;10.60;8.65;;;;;;;28.19;44.86;99324.16;5075659;28;20032;-66
2022/07/06 08:27:34;;;;;;;10.57;8.43;;;;;;;28.17;45.25;99324.41;5075413;28;20025;-65
2022/07/06 08:30:00;;;;;;;9.45;8.50;;;;;;;28.17;45.34;99329.84;5075874;28;20035;-66
2022/07/06 08:32:26;;;;;;;11.43;8.73;;;;;;;28.20;45.28;99328.53;5075307;28;20479;-66
2022/07/06 08:34:52;;;;;;;14.18;9.23;;;;;;;28.19;45.49;99324.97;5075378;28;20028;-66
2022/07/06 08:37:19;;;;;;;10.57;9.38;;;;;;;28.19;44.95;99319.53;5075265;28;20051;-66
2022/07/06 08:39:45;;;;;;;9.23;8.32;;;;;;;28.20;44.97;99323.91;5075308;28;20078;-66
2022/07/06 08:42:12;;;;;;;11.70;9.10;;;;;;;28.21;45.00;99324.75;5075832;28;20107;-66
2022/07/06 08:44:38;;;;;;;11.07;8.70;;;;;;;28.21;45.32;99325.56;5075374;28;20033;-66
2022/07/06 08:47:07;;;;;;;12.90;10.07;;;;;;;28.23;45.35;99314.47;5074854;28;20035;-66
2022/07/06 08:49:34;;;;;;;13.10;9.70;;;;;;;28.25;45.22;99325.91;5075254;28;20048;-66
2022/07/06 08:52:02;;;;;;;12.15;10.45;;;;;;;28.24;45.54;99303.31;5073851;28;20040;-66
2022/07/06 08:54:28;;;;;;;11.02;9.60;;;;;;;28.24;45.60;99307.94;5075221;28;20032;-67
2022/07/06 08:56:54;;;;;;;10.68;9.30;;;;;;;28.23;45.56;99307.13;5074790;28;20082;-66
2022/07/06 08:59:19;;;;;;;12.88;9.23;;;;;;;28.23;45.72;99311.75;5075117;28;20048;-66
2022/07/06 09:01:46;;;;;;;13.25;10.48;;;;;;;28.24;45.34;99306.06;5074436;28;20040;-65
2022/07/06 09:04:15;;;;;;;11.07;9.95;;;;;;;28.26;46.27;99305.78;5074676;28;20028;-66
2022/07/06 09:06:42;;;;;;;11.73;10.52;;;;;;;28.28;45.71;99307.22;5074671;28;20111;-66
2022/07/06 09:09:09;;;;;;;10.73;9.63;;;;;;;28.27;45.78;99302.84;5074989;28;20038;-66
2022/07/06 09:11:35;;;;;;;10.13;9.05;;;;;;;28.27;45.29;99307.44;5074511;28;20039;-66
2022/07/06 09:14:01;;;;;;;14.02;10.45;;;;;;;28.28;45.70;99303.66;5074669;28;20039;-66
2022/07/06 09:16:29;;;;;;;11.93;10.73;;;;;;;28.27;45.30;99302.84;5074380;28;20020;-66
2022/07/06 09:18:55;;;;;;;12.50;11.20;;;;;;;28.26;45.24;99305.78;5074311;28;20113;-66
2022/07/06 09:21:32;;;;;;;12.02;10.50;;;;;;;28.25;45.23;99301.41;5073135;28;20024;-66
2022/07/06 09:24:02;;;;;;;11.45;10.35;;;;;;;28.24;45.29;99300.59;5074683;28;20032;-66
2022/07/06 09:26:28;;;;;;;13.07;10.55;;;;;;;28.22;45.37;99297.31;5054177;28;20063;-66
2022/07/06 09:28:55;;;;;;;13.82;11.75;;;;;;;28.22;45.72;99304.66;5056261;28;20056;-66
2022/07/06 09:31:22;;;;;;;15.65;11.18;;;;;;;28.18;45.78;99290.69;5074084;28;20043;-66
2022/07/06 09:34:13;;;;;;;16.67;11.70;;;;;;;28.22;45.67;99296.50;5074728;28;20478;-66
2022/07/06 09:36:41;;;;;;;12.25;11.15;;;;;;;28.20;45.52;99288.56;5070227;28;20454;-66
2022/07/06 09:39:26;;;;;;;11.82;10.63;;;;;;;28.21;45.94;99283.97;5074328;28;20036;-67
2022/07/06 09:41:53;;;;;;;17.35;11.52;;;;;;;28.21;45.68;99295.66;5074208;28;20570;-66
2022/07/06 09:44:29;;;;;;;13.45;12.10;;;;;;;28.22;45.83;99300.03;5074015;28;20032;-66
2022/07/06 09:46:58;;;;;;;12.25;11.05;;;;;;;28.22;46.10;99286.41;5073522;28;20499;-66
2022/07/06 09:49:24;;;;;;;14.18;11.27;;;;;;;28.26;46.24;99290.31;5073922;28;20028;-67
2022/07/06 09:51:51;;;;;;;13.13;11.00;;;;;;;28.28;45.72;99290.91;5073998;28;20043;-66
2022/07/06 09:54:17;;;;;;;12.60;11.38;;;;;;;28.28;45.82;99281.91;5073651;28;20032;-67
2022/07/06 09:56:47;;;;;;;14.60;12.65;;;;;;;28.32;45.93;99283.06;5073796;28;20036;-66
2022/07/06 09:59:15;;;;;;;13.80;10.45;;;;;;;28.34;45.93;99283.66;5072415;28;20032;-66
2022/07/06 10:01:42;;;;;;;11.55;10.40;;;;;;;28.34;45.93;99286.38;5072212;28;20036;-66
2022/07/06 10:04:10;;;;;;;11.65;10.45;;;;;;;28.37;45.64;99285.06;5073470;28;20491;-66
2022/07/06 10:06:36;;;;;;;13.65;10.57;;;;;;;28.37;46.10;99285.06;5073282;28;20044;-67
2022/07/06 10:09:06;;;;;;;12.38;10.50;;;;;;;28.38;46.15;99276.63;5073785;28;20119;-66
2022/07/06 10:11:36;;;;;;;13.52;11.52;;;;;;;28.38;45.59;99282.06;5073634;28;20092;-66
2022/07/06 10:14:04;;;;;;;15.27;11.63;;;;;;;28.38;45.86;99273.09;5073500;28;20074;-66
2022/07/06 10:16:30;;;;;;;11.90;10.70;;;;;;;28.40;45.74;99276.41;5073237;28;20051;-66
2022/07/06 10:18:57;;;;;;;12.13;10.93;;;;;;;28.39;45.60;99264.69;5073027;28;20048;-66
2022/07/06 10:21:23;;;;;;;11.63;10.43;;;;;;;28.40;45.23;99271.78;5073414;28;20081;-66
2022/07/06 10:23:50;;;;;;;13.82;10.27;;;;;;;28.41;45.54;99261.72;5073641;28;20391;-66
2022/07/06 10:26:18;;;;;;;13.32;11.20;;;;;;;28.41;45.38;99259.00;5073052;28;20032;-66
2022/07/06 10:28:44;;;;;;;11.40;10.32;;;;;;;28.42;45.05;99260.66;5073402;28;20174;-67
2022/07/06 10:31:10;;;;;;;12.57;10.93;;;;;;;28.42;45.46;99257.94;5073302;28;20032;-66
2022/07/06 10:33:37;;;;;;;14.18;10.50;;;;;;;28.42;45.37;99258.75;5073804;28;20063;-66
2022/07/06 10:36:04;;;;;;;10.77;9.30;;;;;;;28.42;45.28;99257.94;5073150;28;20028;-66
2022/07/06 10:38:34;;;;;;;12.10;10.18;;;;;;;28.42;45.34;99256.03;5072896;28;20044;-66
2022/07/06 10:41:07;;;;;;;;;;;;;;;28.33;45.35;99258.31;5073970;28;20078;-66
2022/07/06 10:43:36;;;;;;;11.02;10.02;;;;;;;28.35;45.60;99251.81;5073184;28;20286;-66
2022/07/06 10:46:07;;;;;;;12.03;10.30;;;;;;;28.37;45.72;99249.69;5072841;28;20099;-67
2022/07/06 10:48:37;;;;;;;11.68;10.57;;;;;;;28.38;45.22;99248.59;5073707;28;20035;-66
2022/07/06 10:51:04;;;;;;;12.05;10.07;;;;;;;28.39;45.49;99247.53;5073087;28;20028;-66
2022/07/06 10:53:40;;;;;;;17.88;10.55;;;;;;;28.42;45.58;99236.16;5072950;28;20398;-66
2022/07/06 10:56:08;;;;;;;10.70;9.60;;;;;;;28.43;45.52;99233.19;5072614;28;20078;-66
2022/07/06 10:58:51;;;;;;;10.52;9.02;;;;;;;28.44;45.54;99234.03;5072884;28;20033;-66
2022/07/06 11:01:19;;;;;;;11.48;9.52;;;;;;;28.45;45.44;99224.81;5072729;28;20066;-67
2022/07/06 11:03:50;;;;;;;13.38;9.18;;;;;;;28.47;44.81;99237.06;5072604;28;20029;-66
2022/07/06 11:06:23;;;;;;;11.73;9.13;;;;;;;28.49;45.04;99239.53;5070895;28;20040;-65
2022/07/06 11:08:57;;;;;;;11.45;9.00;;;;;;;28.49;44.79;99236.81;5072232;28;20029;-67
2022/07/06 11:11:31;;;;;;;13.60;9.18;;;;;;;28.49;44.21;99231.38;5072645;28;20028;-66
2022/07/06 11:14:07;;;;;;;10.77;8.85;;;;;;;28.50;44.28;99237.66;5052590;28;20039;-66
2022/07/06 11:16:54;;;;;;;9.32;8.40;;;;;;;28.50;44.05;99232.22;5066153;28;20025;-66
2022/07/06 11:19:23;;;;;;;8.60;7.78;;;;;;;28.51;44.67;99229.25;5064794;28;20150;-67
2022/07/06 11:21:57;;;;;;;8.98;7.88;;;;;;;28.52;44.51;99230.88;5072251;28;20135;-65
2022/07/06 11:24:28;;;;;;;8.85;7.60;;;;;;;28.52;44.44;99233.59;5072018;28;20120;-65